Time;durP1;ratioP1;P1;durP2;ratioP2;P2;SDS_P1;SDS_P2;PMS_P1;PMS_P2;Temp;Humidity;BMP_temperature;BMP_pressure;BME280_temperature;BME280_humidity;BME280_pressure;Samples;Min_cycle;Max_cycle;Signal;HPM_P1;HPM_P2
2024/04/22 00:01:44;;;;;;;6.50;5.88;;;;;;;;;;10763465;26;20089;-71
2024/04/22 00:06:37;;;;;;;7.07;6.25;;;;;;;;;;10765078;26;20040;-71
2024/04/22 00:11:31;;;;;;;7.93;7.22;;;;;;;;;;10763639;26;20019;-71
2024/04/22 00:16:26;;;;;;;6.85;5.93;;;;;;;;;;10761724;26;20417;-71
2024/04/22 00:21:21;;;;;;;5.70;5.20;;;;;;;;;;10753649;26;20019;-71
2024/04/22 00:26:15;;;;;;;5.25;4.85;;;;;;;;;;10764257;26;20527;-71
2024/04/22 00:31:10;;;;;;;5.10;4.57;;;;;;;;;;10763677;26;20005;-71
2024/04/22 00:36:05;;;;;;;7.85;6.50;;;;;;;;;;10761196;26;20004;-72
2024/04/22 00:40:59;;;;;;;7.65;7.03;;;;;;;;;;10767105;26;20872;-71
2024/04/22 00:45:54;;;;;;;8.45;7.65;;;;;;;;;;10763319;26;20012;-71
2024/04/22 00:50:48;;;;;;;9.65;8.48;;;;;;;;;;10775977;26;20015;-71
2024/04/22 00:55:41;;;;;;;8.90;8.02;;;;;;;;;;10748067;26;20007;-71
2024/04/22 01:00:35;;;;;;;10.52;7.57;;;;;;;;;;10716033;26;20521;-71
2024/04/22 01:05:30;;;;;;;5.28;4.85;;;;;;;;;;10766966;26;20460;-70
2024/04/22 01:10:26;;;;;;;5.90;5.40;;;;;;;;;;10764941;26;20031;-71
2024/04/22 01:15:21;;;;;;;8.00;5.15;;;;;;;;;;10760212;26;20012;-71
2024/04/22 01:20:15;;;;;;;6.65;5.80;;;;;;;;;;10769529;26;20015;-70
2024/04/22 01:25:09;;;;;;;8.60;6.32;;;;;;;;;;10766458;26;20004;-70
2024/04/22 01:30:07;;;;;;;5.43;5.03;;;;;;;;;;10780484;26;20003;-71
2024/04/22 01:35:03;;;;;;;6.38;5.82;;;;;;;;;;10776248;26;20004;-70
2024/04/22 01:39:57;;;;;;;6.32;5.80;;;;;;;;;;10763081;26;20044;-71
2024/04/22 01:44:52;;;;;;;6.38;5.88;;;;;;;;;;10767775;26;20010;-71
2024/04/22 01:49:46;;;;;;;5.80;5.30;;;;;;;;;;10766871;26;20453;-70
2024/04/22 01:54:40;;;;;;;5.10;4.70;;;;;;;;;;10767114;26;20076;-70
2024/04/22 01:59:34;;;;;;;5.15;4.75;;;;;;;;;;10767663;26;20062;-71
2024/04/22 02:04:28;;;;;;;4.90;4.50;;;;;;;;;;10765313;26;20035;-71
2024/04/22 02:09:22;;;;;;;5.40;5.00;;;;;;;;;;10767126;26;20598;-70
2024/04/22 02:14:16;;;;;;;5.65;5.15;;;;;;;;;;10767578;26;20000;-70
2024/04/22 02:19:10;;;;;;;6.07;5.57;;;;;;;;;;10765475;26;20015;-71
2024/04/22 02:24:06;;;;;;;6.22;5.72;;;;;;;;;;10767390;26;20004;-71
2024/04/22 02:29:03;;;;;;;5.80;5.30;;;;;;;;;;10758122;26;20352;-70
2024/04/22 02:33:57;;;;;;;6.47;5.97;;;;;;;;;;10769214;26;20016;-70
2024/04/22 02:38:52;;;;;;;6.22;5.72;;;;;;;;;;10767490;26;20004;-70
2024/04/22 02:43:48;;;;;;;7.00;6.32;;;;;;;;;;10767237;26;20008;-71
2024/04/22 02:48:42;;;;;;;5.35;4.85;;;;;;;;;;10765273;26;20032;-71
2024/04/22 02:53:37;;;;;;;6.13;5.63;;;;;;;;;;10763039;26;20012;-71
2024/04/22 02:58:32;;;;;;;4.88;4.47;;;;;;;;;;10771828;26;20014;-70
2024/04/22 03:03:30;;;;;;;7.10;5.70;;;;;;;;;;10764664;26;20000;-71
2024/04/22 03:08:23;;;;;;;5.10;4.70;;;;;;;;;;10765083;26;20004;-71
2024/04/22 03:13:18;;;;;;;8.23;7.57;;;;;;;;;;10764084;26;20472;-71
2024/04/22 03:18:12;;;;;;;9.07;6.53;;;;;;;;;;10763676;26;20015;-70
2024/04/22 03:23:06;;;;;;;7.10;6.40;;;;;;;;;;10767019;26;20012;-72
2024/04/22 03:28:00;;;;;;;4.72;3.55;;;;;;;;;;10763401;26;20008;-71
2024/04/22 03:32:55;;;;;;;4.13;3.75;;;;;;;;;;10763796;26;20004;-71
2024/04/22 03:37:49;;;;;;;3.92;3.58;;;;;;;;;;10763733;26;20004;-71
2024/04/22 03:42:43;;;;;;;4.07;3.67;;;;;;;;;;10760905;26;20019;-69
2024/04/22 03:52:50;;;;;;;4.50;4.10;;;;;;;;;;10765827;26;20016;-69
2024/04/22 03:57:44;;;;;;;5.53;3.80;;;;;;;;;;10761959;26;20339;-69
2024/04/22 04:02:42;;;;;;;4.05;3.75;;;;;;;;;;10762683;26;20073;-69
2024/04/22 04:07:37;;;;;;;4.30;3.90;;;;;;;;;;10762109;26;20491;-69
2024/04/22 04:12:31;;;;;;;3.97;3.67;;;;;;;;;;10762846;26;20004;-69
2024/04/22 04:17:26;;;;;;;4.30;3.90;;;;;;;;;;10764548;26;20008;-69
2024/04/22 04:22:21;;;;;;;4.32;4.03;;;;;;;;;;10765889;26;20455;-69
2024/04/22 04:27:15;;;;;;;4.72;4.13;;;;;;;;;;10770744;26;20016;-69
2024/04/22 04:32:09;;;;;;;10.95;8.57;;;;;;;;;;10771604;26;20058;-69
2024/04/22 04:37:05;;;;;;;8.45;6.25;;;;;;;;;;10764370;26;20012;-69
2024/04/22 04:41:59;;;;;;;6.82;6.28;;;;;;;;;;10761368;26;20044;-69
2024/04/22 04:46:53;;;;;;;6.40;5.80;;;;;;;;;;10769475;26;20077;-69
2024/04/22 04:51:47;;;;;;;7.95;7.22;;;;;;;;;;10767737;26;20000;-69
2024/04/22 04:56:41;;;;;;;10.27;9.20;;;;;;;;;;10766852;26;20005;-69
2024/04/22 05:01:36;;;;;;;6.57;6.05;;;;;;;;;;10765372;26;20506;-69
2024/04/22 05:06:30;;;;;;;5.38;4.93;;;;;;;;;;10764762;26;20098;-68
2024/04/22 05:11:24;;;;;;;7.78;6.38;;;;;;;;;;10759114;26;20007;-70
2024/04/22 05:16:19;;;;;;;6.30;5.80;;;;;;;;;;10779796;26;20038;-71
2024/04/22 05:21:14;;;;;;;5.50;5.10;;;;;;;;;;10809660;26;20000;-71
2024/04/22 05:26:08;;;;;;;6.80;6.20;;;;;;;;;;10792008;26;20044;-71
2024/04/22 05:31:02;;;;;;;7.43;6.65;;;;;;;;;;10798701;26;20012;-71
2024/04/22 05:36:11;;;;;;;14.88;13.57;;;;;;;;;;10798039;26;20003;-71
2024/04/22 05:41:06;;;;;;;10.83;10.03;;;;;;;;;;10790183;26;20003;-71
2024/04/22 05:46:01;;;;;;;10.10;8.27;;;;;;;;;;10802481;26;20004;-72
2024/04/22 05:50:59;;;;;;;15.32;13.82;;;;;;;;;;10768978;26;20004;-73
2024/04/22 05:55:53;;;;;;;8.85;8.15;;;;;;;;;;10782231;26;20004;-71
2024/04/22 06:00:47;;;;;;;8.13;7.32;;;;;;;;;;10777131;26;20004;-73
2024/04/22 06:05:41;;;;;;;10.90;9.80;;;;;;;;;;10767408;26;20093;-73
2024/04/22 06:10:35;;;;;;;12.00;9.68;;;;;;;;;;10769349;26;20008;-78
2024/04/22 06:15:30;;;;;;;13.40;9.00;;;;;;;;;;10770763;26;20005;-77
2024/04/22 06:20:24;;;;;;;9.75;8.85;;;;;;;;;;10808751;26;20019;-77
2024/04/22 06:25:18;;;;;;;10.00;9.00;;;;;;;;;;10792309;26;20084;-70
2024/04/22 06:30:13;;;;;;;7.90;7.22;;;;;;;;;;10803674;26;20343;-72
2024/04/22 06:35:08;;;;;;;7.60;6.88;;;;;;;;;;10778677;26;20005;-83
2024/04/22 06:40:03;;;;;;;9.43;8.40;;;;;;;;;;10800780;26;20085;-87
2024/04/22 06:44:57;;;;;;;9.27;8.48;;;;;;;;;;10774577;26;20388;-73
2024/04/22 06:49:52;;;;;;;9.93;8.93;;;;;;;;;;10767796;26;20030;-73
2024/04/22 06:54:46;;;;;;;10.20;9.27;;;;;;;;;;10765202;26;20031;-75
2024/04/22 06:59:41;;;;;;;8.70;8.00;;;;;;;;;;10767434;26;20399;-75
2024/04/22 07:04:35;;;;;;;10.25;9.45;;;;;;;;;;10757171;26;20032;-75
2024/04/22 07:09:30;;;;;;;14.38;13.02;;;;;;;;;;10765702;26;20077;-77
2024/04/22 07:14:25;;;;;;;12.30;11.27;;;;;;;;;;10754965;26;20005;-74
2024/04/22 07:19:20;;;;;;;10.57;9.68;;;;;;;;;;10764257;26;20106;-73
2024/04/22 07:24:15;;;;;;;8.98;7.32;;;;;;;;;;10744236;26;20457;-76
2024/04/22 07:29:11;;;;;;;14.95;10.07;;;;;;;;;;10766649;26;20000;-77
2024/04/22 07:34:06;;;;;;;11.48;8.95;;;;;;;;;;10764896;26;20321;-76
2024/04/22 07:39:07;;;;;;;8.23;7.47;;;;;;;;;;10765182;26;21842;-75
2024/04/22 07:44:02;;;;;;;5.32;4.82;;;;;;;;;;10765343;26;20050;-77
2024/04/22 07:48:56;;;;;;;6.78;4.90;;;;;;;;;;10765786;26;20000;-77
2024/04/22 07:53:50;;;;;;;4.68;4.28;;;;;;;;;;10741175;26;20406;-77
2024/04/22 07:58:45;;;;;;;5.82;5.10;;;;;;;;;;10775022;26;20438;-81
2024/04/22 08:03:40;;;;;;;8.57;7.43;;;;;;;;;;10739146;26;20004;-84
2024/04/22 08:08:41;;;;;;;5.50;5.00;;;;;;;;;;10770280;26;20004;-74
2024/04/22 08:13:36;;;;;;;6.70;4.57;;;;;;;;;;10786977;26;20004;-80
2024/04/22 08:18:30;;;;;;;6.25;5.63;;;;;;;;;;10769520;26;20626;-87
2024/04/22 08:23:26;;;;;;;3.58;3.30;;;;;;;;;;10769480;26;20016;-83
2024/04/22 08:28:19;;;;;;;5.28;3.38;;;;;;;;;;10766300;26;20004;-78
2024/04/22 08:33:14;;;;;;;4.50;4.10;;;;;;;;;;10772268;26;20032;-76
2024/04/22 08:38:08;;;;;;;5.57;4.10;;;;;;;;;;10766538;26;20040;-71
2024/04/22 08:43:03;;;;;;;3.60;3.28;;;;;;;;;;10762664;26;20088;-78
2024/04/22 08:47:58;;;;;;;5.13;2.97;;;;;;;;;;10771518;26;20478;-78
2024/04/22 08:52:55;;;;;;;4.20;3.80;;;;;;;;;;10766604;26;20310;-76
2024/04/22 08:57:49;;;;;;;3.97;3.65;;;;;;;;;;10770342;26;20016;-78
2024/04/22 09:02:44;;;;;;;9.13;3.20;;;;;;;;;;10771956;26;20004;-76
2024/04/22 09:07:38;;;;;;;3.55;3.08;;;;;;;;;;10773135;26;20317;-73
2024/04/22 09:12:33;;;;;;;3.35;2.63;;;;;;;;;;10756854;26;20004;-73
2024/04/22 09:17:26;;;;;;;3.47;3.17;;;;;;;;;;10767648;26;20004;-73
2024/04/22 09:22:21;;;;;;;4.35;3.60;;;;;;;;;;10764118;26;20008;-73
2024/04/22 09:27:14;;;;;;;4.82;3.97;;;;;;;;;;10760621;26;20411;-74
2024/04/22 09:32:15;;;;;;;4.97;4.57;;;;;;;;;;10767698;26;20065;-74
2024/04/22 09:37:09;;;;;;;6.07;5.40;;;;;;;;;;10766505;26;20325;-73
2024/04/22 09:42:04;;;;;;;13.68;6.32;;;;;;;;;;10767641;26;20004;-74
2024/04/22 09:46:59;;;;;;;10.82;7.72;;;;;;;;;;10735666;26;20042;-73
2024/04/22 09:51:59;;;;;;;7.15;6.40;;;;;;;;;;10773876;26;20081;-73
2024/04/22 09:56:54;;;;;;;5.40;4.90;;;;;;;;;;10770306;26;20343;-74
2024/04/22 10:01:47;;;;;;;5.65;5.15;;;;;;;;;;10766254;26;20078;-73
2024/04/22 10:06:42;;;;;;;6.97;5.40;;;;;;;;;;10768751;26;20028;-73
2024/04/22 10:11:37;;;;;;;5.03;4.53;;;;;;;;;;10766838;26;20004;-73
2024/04/22 10:16:32;;;;;;;10.15;7.93;;;;;;;;;;10773708;26;20015;-73
2024/04/22 10:21:27;;;;;;;8.48;7.53;;;;;;;;;;10765383;26;20071;-73
2024/04/22 10:26:21;;;;;;;10.02;7.10;;;;;;;;;;10763900;26;20011;-73
2024/04/22 10:31:21;;;;;;;8.00;5.78;;;;;;;;;;10782391;26;20435;-73
2024/04/22 10:36:18;;;;;;;7.40;6.70;;;;;;;;;;10766442;26;20027;-73
2024/04/22 10:41:12;;;;;;;7.75;7.05;;;;;;;;;;10765157;26;20132;-73
2024/04/22 10:46:06;;;;;;;6.43;5.78;;;;;;;;;;10717943;26;20338;-73
2024/04/22 10:51:01;;;;;;;7.82;7.13;;;;;;;;;;10745588;26;20000;-72
2024/04/22 10:55:55;;;;;;;6.90;6.30;;;;;;;;;;10753548;26;20016;-73
2024/04/22 11:00:49;;;;;;;7.13;5.97;;;;;;;;;;10760593;26;20004;-73
2024/04/22 11:05:47;;;;;;;6.65;6.05;;;;;;;;;;10762936;26;20004;-74
2024/04/22 11:10:41;;;;;;;13.15;9.52;;;;;;;;;;10763538;26;20004;-73
2024/04/22 11:15:37;;;;;;;16.58;14.15;;;;;;;;;;10764104;26;20000;-79
2024/04/22 11:20:31;;;;;;;4.78;4.30;;;;;;;;;;10763161;26;20015;-79
2024/04/22 11:25:26;;;;;;;6.13;4.60;;;;;;;;;;10762644;26;20004;-78
2024/04/22 11:30:19;;;;;;;4.40;4.00;;;;;;;;;;10765586;26;20425;-78
2024/04/22 11:35:14;;;;;;;3.72;3.15;;;;;;;;;;10762792;26;20455;-73
2024/04/22 11:40:11;;;;;;;4.40;4.00;;;;;;;;;;10763632;26;20016;-74
2024/04/22 11:45:07;;;;;;;3.70;3.38;;;;;;;;;;10763074;26;20004;-74
2024/04/22 11:50:01;;;;;;;3.90;3.60;;;;;;;;;;10760906;26;20001;-74
2024/04/22 11:54:55;;;;;;;3.20;2.92;;;;;;;;;;10763113;26;20024;-73
2024/04/22 11:59:50;;;;;;;2.60;2.40;;;;;;;;;;10751616;26;20004;-73
2024/04/22 12:04:44;;;;;;;2.33;2.22;;;;;;;;;;10760913;26;20000;-74
2024/04/22 12:09:39;;;;;;;7.97;6.85;;;;;;;;;;10762984;26;20012;-73
2024/04/22 12:14:33;;;;;;;5.65;4.35;;;;;;;;;;10767540;26;20016;-73
2024/04/22 12:19:27;;;;;;;5.47;3.88;;;;;;;;;;10763236;26;20004;-73
2024/04/22 12:24:21;;;;;;;1.90;1.80;;;;;;;;;;10761552;26;20019;-74
2024/04/22 12:29:15;;;;;;;1.70;1.60;;;;;;;;;;10764157;26;20081;-74
2024/04/22 12:34:09;;;;;;;1.60;1.50;;;;;;;;;;10765709;26;20360;-74
2024/04/22 12:39:06;;;;;;;1.65;1.55;;;;;;;;;;10752963;26;20004;-74
2024/04/22 12:44:00;;;;;;;2.28;2.00;;;;;;;;;;10786770;26;20011;-73
2024/04/22 12:54:09;;;;;;;1.88;1.77;;;;;;;;;;10764065;26;20011;-72
2024/04/22 12:59:04;;;;;;;2.65;2.45;;;;;;;;;;10777768;26;20014;-73
2024/04/22 13:03:58;;;;;;;3.00;2.78;;;;;;;;;;10766845;26;20001;-72
2024/04/22 13:08:52;;;;;;;3.20;2.90;;;;;;;;;;10760847;26;20004;-72
2024/04/22 13:13:45;;;;;;;4.78;4.28;;;;;;;;;;10767981;26;20004;-72
2024/04/22 13:18:40;;;;;;;5.32;4.82;;;;;;;;;;10767059;26;20015;-73
2024/04/22 13:23:34;;;;;;;4.63;3.50;;;;;;;;;;10767969;26;20016;-72
2024/04/22 13:28:28;;;;;;;4.20;3.80;;;;;;;;;;10769117;26;20001;-73
2024/04/22 13:33:23;;;;;;;3.63;3.33;;;;;;;;;;10770606;26;19996;-72
2024/04/22 13:38:17;;;;;;;5.75;4.80;;;;;;;;;;10769267;26;20413;-73
2024/04/22 13:43:11;;;;;;;6.10;5.50;;;;;;;;;;10758472;26;20440;-72
2024/04/22 13:48:06;;;;;;;7.05;5.88;;;;;;;;;;10768410;26;20087;-72
2024/04/22 13:52:59;;;;;;;8.05;5.68;;;;;;;;;;10765399;26;20008;-72
2024/04/22 13:58:12;;;;;;;7.10;6.40;;;;;;;;;;10736818;26;20004;-72
2024/04/22 14:03:06;;;;;;;5.78;5.28;;;;;;;;;;10760125;26;20008;-72
2024/04/22 14:07:59;;;;;;;6.60;5.55;;;;;;;;;;10766057;26;20262;-72
2024/04/22 14:12:52;;;;;;;7.03;5.22;;;;;;;;;;10764270;26;20027;-72
2024/04/22 14:17:46;;;;;;;7.22;4.47;;;;;;;;;;10760566;26;20005;-72
2024/04/22 14:22:40;;;;;;;6.28;5.68;;;;;;;;;;10761045;26;20004;-72
2024/04/22 14:27:35;;;;;;;6.00;5.40;;;;;;;;;;10764626;26;20005;-72
2024/04/22 14:32:29;;;;;;;4.88;4.47;;;;;;;;;;10749415;26;20004;-72
2024/04/22 14:37:23;;;;;;;7.55;6.43;;;;;;;;;;10763074;26;20007;-72
2024/04/22 14:42:17;;;;;;;5.25;4.75;;;;;;;;;;10769418;26;20012;-72
2024/04/22 14:47:12;;;;;;;5.38;4.88;;;;;;;;;;10786157;26;20004;-72
2024/04/22 14:52:06;;;;;;;5.18;4.68;;;;;;;;;;10764564;26;20005;-72
2024/04/22 14:57:00;;;;;;;6.85;5.97;;;;;;;;;;10749967;26;20012;-72
2024/04/22 15:01:55;;;;;;;8.55;7.55;;;;;;;;;;10749059;26;20000;-72
2024/04/22 15:06:50;;;;;;;5.93;5.30;;;;;;;;;;10761527;26;20004;-72
2024/04/22 15:11:44;;;;;;;5.43;4.90;;;;;;;;;;10764204;26;20097;-72
2024/04/22 15:16:38;;;;;;;8.68;5.95;;;;;;;;;;10761970;26;20019;-71
2024/04/22 15:21:33;;;;;;;6.22;5.63;;;;;;;;;;10765359;26;20016;-71
2024/04/22 15:26:27;;;;;;;4.50;4.05;;;;;;;;;;10773138;26;20004;-72
2024/04/22 15:31:21;;;;;;;5.70;3.58;;;;;;;;;;10770317;26;19999;-71
2024/04/22 15:36:16;;;;;;;5.07;3.95;;;;;;;;;;10761535;26;20004;-72
2024/04/22 15:41:09;;;;;;;3.65;3.35;;;;;;;;;;10759339;26;20022;-72
2024/04/22 15:46:04;;;;;;;6.53;4.35;;;;;;;;;;10761636;26;20221;-71
2024/04/22 15:50:58;;;;;;;5.97;5.38;;;;;;;;;;10761868;26;20008;-71
2024/04/22 15:55:58;;;;;;;7.22;5.20;;;;;;;;;;10762985;26;20007;-71
2024/04/22 16:00:55;;;;;;;3.88;3.55;;;;;;;;;;10766578;26;19997;-72
2024/04/22 16:05:50;;;;;;;4.90;4.40;;;;;;;;;;10761799;26;20452;-72
2024/04/22 16:10:46;;;;;;;6.03;5.43;;;;;;;;;;10752981;26;20408;-72
2024/04/22 16:15:40;;;;;;;5.22;4.55;;;;;;;;;;10762392;26;20012;-72
2024/04/22 16:20:33;;;;;;;3.70;3.40;;;;;;;;;;10768456;26;20052;-72
2024/04/22 16:25:27;;;;;;;3.22;2.92;;;;;;;;;;10768666;26;20000;-71
2024/04/22 16:30:23;;;;;;;3.30;3.10;;;;;;;;;;10768132;26;20011;-72
2024/04/22 16:35:17;;;;;;;4.20;3.20;;;;;;;;;;10759429;26;20443;-71
2024/04/22 16:40:12;;;;;;;5.47;3.20;;;;;;;;;;10760309;26;20015;-72
2024/04/22 16:45:06;;;;;;;4.70;4.25;;;;;;;;;;10768076;26;20004;-72
2024/04/22 16:50:01;;;;;;;9.65;6.35;;;;;;;;;;10771593;26;20004;-71
2024/04/22 16:54:55;;;;;;;11.75;7.18;;;;;;;;;;10766015;26;20004;-72
2024/04/22 16:59:49;;;;;;;7.65;6.90;;;;;;;;;;10742286;26;20317;-72
2024/04/22 17:04:42;;;;;;;6.32;3.67;;;;;;;;;;10770916;26;20011;-72
2024/04/22 17:09:37;;;;;;;8.65;3.92;;;;;;;;;;10766523;26;20004;-71
2024/04/22 17:14:32;;;;;;;4.63;3.65;;;;;;;;;;10769263;26;20005;-72
2024/04/22 17:19:27;;;;;;;4.05;3.72;;;;;;;;;;10769134;26;20081;-71
2024/04/22 17:24:21;;;;;;;3.55;3.00;;;;;;;;;;10767838;26;20031;-71
2024/04/22 17:29:15;;;;;;;3.47;3.17;;;;;;;;;;10771178;26;20405;-72
2024/04/22 17:34:08;;;;;;;5.85;5.32;;;;;;;;;;10794751;26;20357;-72
2024/04/22 17:39:04;;;;;;;5.40;4.90;;;;;;;;;;10783886;26;20053;-72
2024/04/22 17:43:59;;;;;;;4.90;4.40;;;;;;;;;;10764286;26;20008;-72
2024/04/22 17:48:53;;;;;;;5.97;5.43;;;;;;;;;;10764891;26;20341;-72
2024/04/22 17:53:48;;;;;;;6.07;5.50;;;;;;;;;;10767289;26;20371;-72
2024/04/22 17:58:42;;;;;;;5.45;4.95;;;;;;;;;;10710581;26;20004;-72
2024/04/22 18:03:37;;;;;;;8.63;6.43;;;;;;;;;;10766144;26;20000;-72
2024/04/22 18:08:31;;;;;;;7.03;5.32;;;;;;;;;;10760790;26;20004;-72
2024/04/22 18:13:27;;;;;;;15.18;11.13;;;;;;;;;;10773455;26;20440;-72
2024/04/22 18:18:21;;;;;;;16.60;10.95;;;;;;;;;;10766411;26;20036;-72
2024/04/22 18:23:15;;;;;;;12.50;11.18;;;;;;;;;;10766180;26;22354;-71
2024/04/22 18:28:10;;;;;;;18.42;15.07;;;;;;;;;;10761236;26;20005;-72
2024/04/22 18:33:04;;;;;;;8.90;7.35;;;;;;;;;;10772247;26;20000;-72
2024/04/22 18:37:58;;;;;;;12.55;9.60;;;;;;;;;;10776772;26;20438;-74
2024/04/22 18:42:52;;;;;;;11.00;9.85;;;;;;;;;;10762790;26;20491;-72
2024/04/22 18:47:46;;;;;;;12.35;11.10;;;;;;;;;;10757245;26;20055;-72
2024/04/22 18:52:39;;;;;;;12.10;10.73;;;;;;;;;;10749979;26;20000;-71
2024/04/22 18:57:33;;;;;;;11.30;10.20;;;;;;;;;;10766613;26;20090;-71
2024/04/22 19:02:29;;;;;;;11.52;8.68;;;;;;;;;;10768252;26;20358;-72
2024/04/22 19:07:23;;;;;;;11.95;9.18;;;;;;;;;;10764061;26;20058;-73
2024/04/22 19:12:18;;;;;;;8.02;7.18;;;;;;;;;;10760665;26;20008;-73
2024/04/22 19:17:11;;;;;;;10.32;7.53;;;;;;;;;;10762974;26;20041;-73
2024/04/22 19:22:05;;;;;;;9.07;8.13;;;;;;;;;;10756215;26;20011;-73
2024/04/22 19:26:59;;;;;;;9.30;8.40;;;;;;;;;;10763693;26;20019;-73
2024/04/22 19:31:53;;;;;;;8.43;7.63;;;;;;;;;;10759325;26;20011;-73
2024/04/22 19:36:47;;;;;;;9.30;7.53;;;;;;;;;;10763375;26;20080;-73
2024/04/22 19:41:43;;;;;;;8.65;7.75;;;;;;;;;;10755339;26;20019;-71
2024/04/22 19:46:37;;;;;;;8.00;7.20;;;;;;;;;;10754241;26;20004;-73
2024/04/22 19:51:31;;;;;;;10.25;8.70;;;;;;;;;;10757939;26;20000;-73
2024/04/22 19:56:25;;;;;;;10.82;9.70;;;;;;;;;;10769240;26;20062;-72
2024/04/22 20:01:19;;;;;;;11.25;8.50;;;;;;;;;;10767528;26;20015;-72
2024/04/22 20:06:13;;;;;;;8.70;7.88;;;;;;;;;;10769598;26;20000;-72
2024/04/22 20:11:07;;;;;;;8.20;7.40;;;;;;;;;;10770181;26;20004;-72
2024/04/22 20:16:22;;;;;;;8.70;7.78;;;;;;;;;;10759534;26;20024;-72
2024/04/22 20:21:16;;;;;;;9.88;8.43;;;;;;;;;;10771332;26;20032;-72
2024/04/22 20:26:11;;;;;;;8.18;7.38;;;;;;;;;;10758506;26;20023;-72
2024/04/22 20:31:05;;;;;;;7.88;6.63;;;;;;;;;;10770623;26;20444;-72
2024/04/22 20:35:58;;;;;;;7.25;6.18;;;;;;;;;;10766483;26;20004;-73
2024/04/22 20:41:02;;;;;;;6.32;5.72;;;;;;;;;;10767130;26;20019;-72
2024/04/22 20:45:59;;;;;;;6.85;6.15;;;;;;;;;;10752130;26;20000;-72
2024/04/22 20:50:58;;;;;;;8.45;7.30;;;;;;;;;;10740486;26;20032;-72
2024/04/22 20:55:59;;;;;;;6.53;5.65;;;;;;;;;;10760065;26;20004;-72
2024/04/22 21:00:57;;;;;;;6.72;6.13;;;;;;;;;;10769459;26;20057;-72
2024/04/22 21:05:56;;;;;;;7.03;6.20;;;;;;;;;;10758732;26;20016;-72
2024/04/22 21:10:51;;;;;;;6.72;5.82;;;;;;;;;;10758102;26;20445;-73
2024/04/22 21:15:45;;;;;;;7.85;5.85;;;;;;;;;;10765095;26;20557;-74
2024/04/22 21:20:39;;;;;;;5.28;4.78;;;;;;;;;;10767619;26;20000;-74
2024/04/22 21:25:33;;;;;;;6.35;5.65;;;;;;;;;;10768862;26;20394;-73
2024/04/22 21:30:27;;;;;;;6.40;5.53;;;;;;;;;;10772292;26;20004;-72
2024/04/22 21:35:21;;;;;;;5.28;4.78;;;;;;;;;;10768195;26;20344;-73
2024/04/22 21:40:16;;;;;;;5.32;4.82;;;;;;;;;;10767077;26;20082;-73
2024/04/22 21:45:10;;;;;;;8.10;6.30;;;;;;;;;;10766131;26;20004;-74
2024/04/22 21:50:06;;;;;;;7.75;5.90;;;;;;;;;;10765983;26;20012;-72
2024/04/22 21:55:00;;;;;;;5.95;5.45;;;;;;;;;;10765344;26;20004;-73
2024/04/22 22:00:31;;;;;;;5.93;5.43;;;;;;;;;;10767902;26;20019;-72
2024/04/22 22:06:02;;;;;;;6.38;5.88;;;;;;;;;;10767238;26;20015;-72
2024/04/22 22:10:57;;;;;;;6.18;5.57;;;;;;;;;;10758126;26;20023;-72
2024/04/22 22:15:51;;;;;;;6.05;5.45;;;;;;;;;;10764522;26;20443;-73
2024/04/22 22:20:45;;;;;;;6.43;5.50;;;;;;;;;;10764522;26;20016;-72
2024/04/22 22:25:40;;;;;;;5.53;5.03;;;;;;;;;;10765204;26;20014;-73
2024/04/22 22:30:34;;;;;;;6.40;5.80;;;;;;;;;;10765091;26;20004;-73
2024/04/22 22:35:28;;;;;;;7.07;6.47;;;;;;;;;;10763056;26;20018;-73
2024/04/22 22:40:22;;;;;;;8.00;7.22;;;;;;;;;;10768163;26;20000;-72
2024/04/22 22:45:16;;;;;;;8.07;7.28;;;;;;;;;;10782121;26;20449;-73
2024/04/22 22:50:09;;;;;;;7.03;6.35;;;;;;;;;;10736578;26;20004;-73
2024/04/22 22:55:04;;;;;;;8.02;6.22;;;;;;;;;;10756599;26;20016;-72
2024/04/22 22:59:59;;;;;;;8.02;6.95;;;;;;;;;;10765892;26;20429;-73
2024/04/22 23:04:54;;;;;;;7.20;6.47;;;;;;;;;;10763739;26;20486;-73
2024/04/22 23:09:48;;;;;;;6.57;5.97;;;;;;;;;;10765557;26;19999;-73
2024/04/22 23:14:41;;;;;;;6.60;5.93;;;;;;;;;;10761341;26;20035;-73
2024/04/22 23:19:37;;;;;;;5.93;5.43;;;;;;;;;;10762060;26;20018;-72
2024/04/22 23:24:31;;;;;;;6.50;5.90;;;;;;;;;;10764405;26;20324;-72
2024/04/22 23:29:25;;;;;;;6.55;5.88;;;;;;;;;;10762880;26;20004;-72
2024/04/22 23:34:18;;;;;;;6.18;5.53;;;;;;;;;;10760163;26;20008;-72
2024/04/22 23:39:12;;;;;;;4.78;4.38;;;;;;;;;;10763759;26;20004;-73
2024/04/22 23:44:06;;;;;;;6.05;5.20;;;;;;;;;;10769238;26;20456;-72
2024/04/22 23:49:00;;;;;;;5.57;5.07;;;;;;;;;;10762292;26;20004;-73
2024/04/22 23:53:55;;;;;;;5.75;5.13;;;;;;;;;;10765527;26;20004;-73
2024/04/22 23:58:49;;;;;;;5.97;5.38;;;;;;;;;;10761609;26;20426;-72
